sensor_id;sensor_type;location;lat;lon;timestamp;temperature;humidity
20558;DHT22;10437;48.156;11.530;2022-08-20T00:00:35;18.10;99.90
20558;DHT22;10437;48.156;11.530;2022-08-20T00:03:05;17.70;99.90
20558;DHT22;10437;48.156;11.530;2022-08-20T00:05:37;18.10;99.90
20558;DHT22;10437;48.156;11.530;2022-08-20T00:08:06;18.20;99.90
20558;DHT22;10437;48.156;11.530;2022-08-20T00:10:35;18.10;99.90
20558;DHT22;10437;48.156;11.530;2022-08-20T00:13:05;18.10;99.90
20558;DHT22;10437;48.156;11.530;2022-08-20T00:15:34;18.10;99.90
20558;DHT22;10437;48.156;11.530;2022-08-20T00:18:03;18.00;99.90
20558;DHT22;10437;48.156;11.530;2022-08-20T00:20:36;18.00;99.90
20558;DHT22;10437;48.156;11.530;2022-08-20T00:23:05;18.00;99.90
20558;DHT22;10437;48.156;11.530;2022-08-20T00:25:33;18.10;99.90
20558;DHT22;10437;48.156;11.530;2022-08-20T00:28:00;17.90;99.90
20558;DHT22;10437;48.156;11.530;2022-08-20T00:32:58;17.90;99.90
20558;DHT22;10437;48.156;11.530;2022-08-20T00:35:27;17.90;99.90
20558;DHT22;10437;48.156;11.530;2022-08-20T00:37:55;18.00;99.90
20558;DHT22;10437;48.156;11.530;2022-08-20T00:40:32;18.00;99.90
20558;DHT22;10437;48.156;11.530;2022-08-20T00:43:01;16.30;99.90
20558;DHT22;10437;48.156;11.530;2022-08-20T00:45:31;17.90;99.90
20558;DHT22;10437;48.156;11.530;2022-08-20T00:47:59;17.90;99.90
20558;DHT22;10437;48.156;11.530;2022-08-20T00:50:31;17.90;99.90
20558;DHT22;10437;48.156;11.530;2022-08-20T00:53:00;17.80;99.90
20558;DHT22;10437;48.156;11.530;2022-08-20T00:55:30;18.00;99.90
20558;DHT22;10437;48.156;11.530;2022-08-20T00:57:59;18.00;99.90
20558;DHT22;10437;48.156;11.530;2022-08-20T01:00:29;18.00;99.90
20558;DHT22;10437;48.156;11.530;2022-08-20T01:02:58;17.90;99.90
20558;DHT22;10437;48.156;11.530;2022-08-20T01:07:53;18.10;99.90
20558;DHT22;10437;48.156;11.530;2022-08-20T01:10:23;18.00;99.90
20558;DHT22;10437;48.156;11.530;2022-08-20T01:12:56;18.00;99.90
20558;DHT22;10437;48.156;11.530;2022-08-20T01:15:26;18.20;99.90
20558;DHT22;10437;48.156;11.530;2022-08-20T01:17:57;17.70;99.90
20558;DHT22;10437;48.156;11.530;2022-08-20T01:20:27;18.00;99.90
20558;DHT22;10437;48.156;11.530;2022-08-20T01:23:01;17.90;99.90
20558;DHT22;10437;48.156;11.530;2022-08-20T01:25:51;18.00;99.90
20558;DHT22;10437;48.156;11.530;2022-08-20T01:28:23;18.10;99.90
20558;DHT22;10437;48.156;11.530;2022-08-20T01:30:51;17.90;99.90
20558;DHT22;10437;48.156;11.530;2022-08-20T01:40:54;18.00;99.90
20558;DHT22;10437;48.156;11.530;2022-08-20T01:50:52;18.00;99.90
20558;DHT22;10437;48.156;11.530;2022-08-20T01:53:25;17.90;99.90
20558;DHT22;10437;48.156;11.530;2022-08-20T01:55:55;17.90;99.90
20558;DHT22;10437;48.156;11.530;2022-08-20T02:13:07;17.80;99.90
20558;DHT22;10437;48.156;11.530;2022-08-20T02:18:03;17.70;99.90
20558;DHT22;10437;48.156;11.530;2022-08-20T02:20:31;17.70;99.90
20558;DHT22;10437;48.156;11.530;2022-08-20T02:22:59;17.70;99.90
20558;DHT22;10437;48.156;11.530;2022-08-20T02:25:29;17.60;99.90
20558;DHT22;10437;48.156;11.530;2022-08-20T02:27:58;17.60;99.90
20558;DHT22;10437;48.156;11.530;2022-08-20T02:30:31;17.70;99.90
20558;DHT22;10437;48.156;11.530;2022-08-20T02:33:00;17.70;99.90
20558;DHT22;10437;48.156;11.530;2022-08-20T02:35:28;17.70;99.90
20558;DHT22;10437;48.156;11.530;2022-08-20T02:40:25;17.60;99.90
20558;DHT22;10437;48.156;11.530;2022-08-20T02:45:20;17.70;99.90
20558;DHT22;10437;48.156;11.530;2022-08-20T02:47:49;17.60;99.90
20558;DHT22;10437;48.156;11.530;2022-08-20T02:50:19;17.60;99.90
20558;DHT22;10437;48.156;11.530;2022-08-20T02:55:14;17.40;99.90
20558;DHT22;10437;48.156;11.530;2022-08-20T03:00:10;17.50;99.90
20558;DHT22;10437;48.156;11.530;2022-08-20T03:05:07;17.70;99.90
20558;DHT22;10437;48.156;11.530;2022-08-20T03:07:40;17.60;99.90
20558;DHT22;10437;48.156;11.530;2022-08-20T03:15:03;17.60;99.90
20558;DHT22;10437;48.156;11.530;2022-08-20T03:22:26;17.60;99.90
20558;DHT22;10437;48.156;11.530;2022-08-20T03:32:16;17.70;99.90
20558;DHT22;10437;48.156;11.530;2022-08-20T03:39:39;17.60;99.90
20558;DHT22;10437;48.156;11.530;2022-08-20T03:47:02;17.60;99.90
20558;DHT22;10437;48.156;11.530;2022-08-20T03:54:28;17.90;99.90
20558;DHT22;10437;48.156;11.530;2022-08-20T03:56:56;17.60;99.90
20558;DHT22;10437;48.156;11.530;2022-08-20T04:09:12;17.60;99.90
20558;DHT22;10437;48.156;11.530;2022-08-20T04:11:39;17.90;99.90
20558;DHT22;10437;48.156;11.530;2022-08-20T04:31:22;17.30;99.90
20558;DHT22;10437;48.156;11.530;2022-08-20T04:41:18;17.40;99.90
20558;DHT22;10437;48.156;11.530;2022-08-20T04:48:41;17.50;99.90
20558;DHT22;10437;48.156;11.530;2022-08-20T04:51:09;17.50;99.90
20558;DHT22;10437;48.156;11.530;2022-08-20T04:53:40;17.60;99.90
20558;DHT22;10437;48.156;11.530;2022-08-20T04:58:36;17.50;99.90
20558;DHT22;10437;48.156;11.530;2022-08-20T05:01:06;17.50;99.90
20558;DHT22;10437;48.156;11.530;2022-08-20T05:06:04;17.40;99.90
20558;DHT22;10437;48.156;11.530;2022-08-20T05:08:32;17.50;99.90
20558;DHT22;10437;48.156;11.530;2022-08-20T05:11:00;17.50;99.90
20558;DHT22;10437;48.156;11.530;2022-08-20T05:15:55;17.40;99.90
20558;DHT22;10437;48.156;11.530;2022-08-20T05:18:30;17.50;99.90
20558;DHT22;10437;48.156;11.530;2022-08-20T05:20:59;17.40;99.90
20558;DHT22;10437;48.156;11.530;2022-08-20T05:23:32;17.30;99.90
20558;DHT22;10437;48.156;11.530;2022-08-20T05:30:58;16.00;99.90
20558;DHT22;10437;48.156;11.530;2022-08-20T05:33:26;17.50;99.90
20558;DHT22;10437;48.156;11.530;2022-08-20T05:35:55;17.60;99.90
20558;DHT22;10437;48.156;11.530;2022-08-20T05:38:25;17.60;99.90
20558;DHT22;10437;48.156;11.530;2022-08-20T05:40:54;17.50;99.90
20558;DHT22;10437;48.156;11.530;2022-08-20T05:48:19;17.50;99.90
20558;DHT22;10437;48.156;11.530;2022-08-20T05:50:48;17.60;99.90
20558;DHT22;10437;48.156;11.530;2022-08-20T05:53:15;17.60;99.90
20558;DHT22;10437;48.156;11.530;2022-08-20T05:58:18;17.60;99.90
20558;DHT22;10437;48.156;11.530;2022-08-20T06:00:46;17.70;99.90
20558;DHT22;10437;48.156;11.530;2022-08-20T06:05:59;17.80;99.90
20558;DHT22;10437;48.156;11.530;2022-08-20T06:10:53;17.70;99.90
20558;DHT22;10437;48.156;11.530;2022-08-20T06:13:21;17.80;99.90
20558;DHT22;10437;48.156;11.530;2022-08-20T06:15:48;17.90;99.90
20558;DHT22;10437;48.156;11.530;2022-08-20T06:23:11;17.90;99.90
20558;DHT22;10437;48.156;11.530;2022-08-20T06:25:38;18.00;99.90
20558;DHT22;10437;48.156;11.530;2022-08-20T06:30:34;17.70;99.90
20558;DHT22;10437;48.156;11.530;2022-08-20T06:37:58;17.90;99.90
20558;DHT22;10437;48.156;11.530;2022-08-20T06:40:27;17.90;99.90
20558;DHT22;10437;48.156;11.530;2022-08-20T06:42:55;18.60;99.90
20558;DHT22;10437;48.156;11.530;2022-08-20T06:47:52;18.00;99.90
20558;DHT22;10437;48.156;11.530;2022-08-20T06:50:23;18.00;99.90
20558;DHT22;10437;48.156;11.530;2022-08-20T07:00:16;18.20;99.90
20558;DHT22;10437;48.156;11.530;2022-08-20T07:05:13;18.10;99.90
20558;DHT22;10437;48.156;11.530;2022-08-20T07:07:43;18.10;99.90
20558;DHT22;10437;48.156;11.530;2022-08-20T07:10:12;18.10;99.90
20558;DHT22;10437;48.156;11.530;2022-08-20T07:15:09;18.10;99.90
20558;DHT22;10437;48.156;11.530;2022-08-20T07:20:04;18.10;99.90
20558;DHT22;10437;48.156;11.530;2022-08-20T07:22:33;18.10;99.90
20558;DHT22;10437;48.156;11.530;2022-08-20T07:35:09;18.50;99.90
20558;DHT22;10437;48.156;11.530;2022-08-20T07:37:39;18.00;99.90
20558;DHT22;10437;48.156;11.530;2022-08-20T07:40:10;18.30;99.90
20558;DHT22;10437;48.156;11.530;2022-08-20T07:42:38;18.30;99.90
20558;DHT22;10437;48.156;11.530;2022-08-20T07:45:06;18.30;99.90
20558;DHT22;10437;48.156;11.530;2022-08-20T07:50:05;18.30;99.90
20558;DHT22;10437;48.156;11.530;2022-08-20T07:55:02;18.40;99.90
20558;DHT22;10437;48.156;11.530;2022-08-20T07:57:29;18.40;99.90
20558;DHT22;10437;48.156;11.530;2022-08-20T07:59:56;18.00;99.90
20558;DHT22;10437;48.156;11.530;2022-08-20T08:02:25;18.80;99.90
20558;DHT22;10437;48.156;11.530;2022-08-20T08:09:47;18.40;99.90
20558;DHT22;10437;48.156;11.530;2022-08-20T08:12:16;18.50;99.90
20558;DHT22;10437;48.156;11.530;2022-08-20T08:14:43;18.50;99.90
20558;DHT22;10437;48.156;11.530;2022-08-20T08:17:12;18.60;99.90
20558;DHT22;10437;48.156;11.530;2022-08-20T08:19:42;18.70;99.90
20558;DHT22;10437;48.156;11.530;2022-08-20T08:22:12;18.60;99.90
20558;DHT22;10437;48.156;11.530;2022-08-20T08:24:42;18.60;99.90
20558;DHT22;10437;48.156;11.530;2022-08-20T08:27:09;18.60;99.90
20558;DHT22;10437;48.156;11.530;2022-08-20T08:29:37;18.60;99.90
20558;DHT22;10437;48.156;11.530;2022-08-20T08:32:06;18.60;99.90
20558;DHT22;10437;48.156;11.530;2022-08-20T08:34:35;18.60;99.90
20558;DHT22;10437;48.156;11.530;2022-08-20T08:37:02;18.60;99.90
20558;DHT22;10437;48.156;11.530;2022-08-20T08:39:30;18.70;99.90
20558;DHT22;10437;48.156;11.530;2022-08-20T08:41:59;18.70;99.90
20558;DHT22;10437;48.156;11.530;2022-08-20T08:44:30;18.40;99.90
20558;DHT22;10437;48.156;11.530;2022-08-20T08:47:12;18.10;99.90
20558;DHT22;10437;48.156;11.530;2022-08-20T08:49:44;18.70;99.90
20558;DHT22;10437;48.156;11.530;2022-08-20T08:52:15;18.60;99.90
20558;DHT22;10437;48.156;11.530;2022-08-20T08:54:48;18.60;99.90
20558;DHT22;10437;48.156;11.530;2022-08-20T08:59:44;18.30;99.90
20558;DHT22;10437;48.156;11.530;2022-08-20T09:02:20;18.60;99.90
20558;DHT22;10437;48.156;11.530;2022-08-20T09:04:48;18.70;99.90
20558;DHT22;10437;48.156;11.530;2022-08-20T09:09:44;18.70;99.90
20558;DHT22;10437;48.156;11.530;2022-08-20T09:12:15;18.60;99.90
20558;DHT22;10437;48.156;11.530;2022-08-20T09:17:12;18.60;99.90
20558;DHT22;10437;48.156;11.530;2022-08-20T09:19:41;18.60;99.90
20558;DHT22;10437;48.156;11.530;2022-08-20T09:22:09;18.70;99.90
20558;DHT22;10437;48.156;11.530;2022-08-20T09:24:36;18.50;99.90
20558;DHT22;10437;48.156;11.530;2022-08-20T09:32:10;18.60;99.90
20558;DHT22;10437;48.156;11.530;2022-08-20T09:34:39;18.50;99.90
20558;DHT22;10437;48.156;11.530;2022-08-20T09:37:09;18.70;99.90
20558;DHT22;10437;48.156;11.530;2022-08-20T09:39:36;18.50;99.90
20558;DHT22;10437;48.156;11.530;2022-08-20T09:42:07;18.60;99.90
20558;DHT22;10437;48.156;11.530;2022-08-20T09:44:34;18.30;99.90
20558;DHT22;10437;48.156;11.530;2022-08-20T09:49:29;18.50;99.90
20558;DHT22;10437;48.156;11.530;2022-08-20T09:51:56;18.60;99.90
20558;DHT22;10437;48.156;11.530;2022-08-20T09:54:27;18.50;99.90
20558;DHT22;10437;48.156;11.530;2022-08-20T10:04:16;18.90;99.90
20558;DHT22;10437;48.156;11.530;2022-08-20T10:06:44;18.70;99.90
20558;DHT22;10437;48.156;11.530;2022-08-20T10:11:39;18.70;99.90
20558;DHT22;10437;48.156;11.530;2022-08-20T10:16:35;18.70;99.90
20558;DHT22;10437;48.156;11.530;2022-08-20T10:19:02;18.60;99.90
20558;DHT22;10437;48.156;11.530;2022-08-20T10:28:52;18.90;99.90
20558;DHT22;10437;48.156;11.530;2022-08-20T10:36:15;18.90;99.90
20558;DHT22;10437;48.156;11.530;2022-08-20T10:46:05;19.10;99.90
20558;DHT22;10437;48.156;11.530;2022-08-20T10:55:54;18.90;99.90
20558;DHT22;10437;48.156;11.530;2022-08-20T11:03:18;19.10;99.90
20558;DHT22;10437;48.156;11.530;2022-08-20T11:13:08;19.10;99.90
20558;DHT22;10437;48.156;11.530;2022-08-20T11:15:38;19.00;99.90
20558;DHT22;10437;48.156;11.530;2022-08-20T11:18:06;18.70;99.90
20558;DHT22;10437;48.156;11.530;2022-08-20T11:20:35;19.00;99.90
20558;DHT22;10437;48.156;11.530;2022-08-20T11:27:58;19.40;99.90
20558;DHT22;10437;48.156;11.530;2022-08-20T11:30:29;19.10;99.90
20558;DHT22;10437;48.156;11.530;2022-08-20T11:32:57;19.30;99.90
20558;DHT22;10437;48.156;11.530;2022-08-20T11:37:54;19.40;99.90
20558;DHT22;10437;48.156;11.530;2022-08-20T11:40:22;19.50;99.90
20558;DHT22;10437;48.156;11.530;2022-08-20T11:50:14;19.70;99.90
20558;DHT22;10437;48.156;11.530;2022-08-20T11:55:11;19.90;99.90
20558;DHT22;10437;48.156;11.530;2022-08-20T11:57:42;19.90;99.90
20558;DHT22;10437;48.156;11.530;2022-08-20T12:00:14;20.00;99.90
20558;DHT22;10437;48.156;11.530;2022-08-20T12:05:09;20.00;99.90
20558;DHT22;10437;48.156;11.530;2022-08-20T12:10:05;20.10;99.90
20558;DHT22;10437;48.156;11.530;2022-08-20T12:12:36;20.30;99.90
20558;DHT22;10437;48.156;11.530;2022-08-20T12:15:05;20.00;99.90
20558;DHT22;10437;48.156;11.530;2022-08-20T12:20:04;19.70;99.90
20558;DHT22;10437;48.156;11.530;2022-08-20T12:27:28;20.00;99.90
20558;DHT22;10437;48.156;11.530;2022-08-20T12:30:08;20.00;99.90
20558;DHT22;10437;48.156;11.530;2022-08-20T12:35:04;20.10;99.90
20558;DHT22;10437;48.156;11.530;2022-08-20T12:40:00;20.10;99.90
20558;DHT22;10437;48.156;11.530;2022-08-20T12:44:57;20.30;99.90
20558;DHT22;10437;48.156;11.530;2022-08-20T12:47:27;20.30;99.90
20558;DHT22;10437;48.156;11.530;2022-08-20T12:54:50;20.50;99.90
20558;DHT22;10437;48.156;11.530;2022-08-20T12:57:24;20.30;99.90
20558;DHT22;10437;48.156;11.530;2022-08-20T13:02:19;20.60;99.90
20558;DHT22;10437;48.156;11.530;2022-08-20T13:07:14;20.60;99.90
20558;DHT22;10437;48.156;11.530;2022-08-20T13:09:42;20.70;99.90
20558;DHT22;10437;48.156;11.530;2022-08-20T13:12:10;20.70;99.90
20558;DHT22;10437;48.156;11.530;2022-08-20T13:14:39;20.80;99.90
20558;DHT22;10437;48.156;11.530;2022-08-20T13:17:07;20.50;99.90
20558;DHT22;10437;48.156;11.530;2022-08-20T13:19:37;20.70;99.90
20558;DHT22;10437;48.156;11.530;2022-08-20T13:22:04;20.70;99.90
20558;DHT22;10437;48.156;11.530;2022-08-20T13:27:04;20.60;99.90
20558;DHT22;10437;48.156;11.530;2022-08-20T13:36:55;20.80;99.90
20558;DHT22;10437;48.156;11.530;2022-08-20T13:39:22;19.80;99.90
20558;DHT22;10437;48.156;11.530;2022-08-20T13:54:08;21.00;99.90
20558;DHT22;10437;48.156;11.530;2022-08-20T14:11:19;20.70;99.90
20558;DHT22;10437;48.156;11.530;2022-08-20T14:28:31;19.90;99.90
20558;DHT22;10437;48.156;11.530;2022-08-20T14:45:43;19.10;99.90
20558;DHT22;10437;48.156;11.530;2022-08-20T14:55:35;19.10;99.90
20558;DHT22;10437;48.156;11.530;2022-08-20T14:58:06;18.80;99.90
20558;DHT22;10437;48.156;11.530;2022-08-20T15:03:02;19.00;99.90
20558;DHT22;10437;48.156;11.530;2022-08-20T15:10:26;19.00;99.90
20558;DHT22;10437;48.156;11.530;2022-08-20T15:12:53;18.50;99.90
20558;DHT22;10437;48.156;11.530;2022-08-20T15:15:21;18.90;99.90
20558;DHT22;10437;48.156;11.530;2022-08-20T15:17:50;18.90;99.90
20558;DHT22;10437;48.156;11.530;2022-08-20T15:20:20;18.70;99.90
20558;DHT22;10437;48.156;11.530;2022-08-20T15:22:48;18.60;99.90
20558;DHT22;10437;48.156;11.530;2022-08-20T15:25:17;17.90;99.90
20558;DHT22;10437;48.156;11.530;2022-08-20T15:27:45;18.30;99.90
20558;DHT22;10437;48.156;11.530;2022-08-20T15:30:15;18.30;99.90
20558;DHT22;10437;48.156;11.530;2022-08-20T15:40:08;18.00;99.90
20558;DHT22;10437;48.156;11.530;2022-08-20T15:45:05;17.90;99.90
20558;DHT22;10437;48.156;11.530;2022-08-20T15:47:35;18.00;99.90
20558;DHT22;10437;48.156;11.530;2022-08-20T15:50:07;17.50;99.90
20558;DHT22;10437;48.156;11.530;2022-08-20T15:52:40;17.60;99.90
20558;DHT22;10437;48.156;11.530;2022-08-20T15:55:11;17.90;99.90
20558;DHT22;10437;48.156;11.530;2022-08-20T15:57:50;17.90;99.90
20558;DHT22;10437;48.156;11.530;2022-08-20T16:00:20;17.90;99.90
20558;DHT22;10437;48.156;11.530;2022-08-20T16:03:11;17.90;99.90
20558;DHT22;10437;48.156;11.530;2022-08-20T16:05:47;17.90;99.90
20558;DHT22;10437;48.156;11.530;2022-08-20T16:08:54;17.90;99.90
20558;DHT22;10437;48.156;11.530;2022-08-20T16:11:28;17.90;99.90
20558;DHT22;10437;48.156;11.530;2022-08-20T16:14:05;17.90;99.90
20558;DHT22;10437;48.156;11.530;2022-08-20T16:16:37;17.90;99.90
20558;DHT22;10437;48.156;11.530;2022-08-20T16:19:07;17.90;99.90
20558;DHT22;10437;48.156;11.530;2022-08-20T16:21:40;17.90;99.90
20558;DHT22;10437;48.156;11.530;2022-08-20T16:24:11;17.90;99.90
20558;DHT22;10437;48.156;11.530;2022-08-20T16:26:59;17.90;99.90
20558;DHT22;10437;48.156;11.530;2022-08-20T16:29:38;17.80;99.90
20558;DHT22;10437;48.156;11.530;2022-08-20T16:32:12;17.80;99.90
20558;DHT22;10437;48.156;11.530;2022-08-20T16:34:46;17.80;99.90
20558;DHT22;10437;48.156;11.530;2022-08-20T16:37:21;17.80;99.90
20558;DHT22;10437;48.156;11.530;2022-08-20T16:39:58;17.80;99.90
20558;DHT22;10437;48.156;11.530;2022-08-20T16:42:35;17.90;99.90
20558;DHT22;10437;48.156;11.530;2022-08-20T16:45:05;17.70;99.90
20558;DHT22;10437;48.156;11.530;2022-08-20T16:47:34;17.80;99.90
20558;DHT22;10437;48.156;11.530;2022-08-20T16:50:07;17.80;99.90
20558;DHT22;10437;48.156;11.530;2022-08-20T16:55:04;17.80;99.90
20558;DHT22;10437;48.156;11.530;2022-08-20T17:00:07;17.90;99.90
20558;DHT22;10437;48.156;11.530;2022-08-20T17:02:48;17.90;99.90
20558;DHT22;10437;48.156;11.530;2022-08-20T17:07:44;17.50;99.90
20558;DHT22;10437;48.156;11.530;2022-08-20T17:10:16;17.80;99.90
20558;DHT22;10437;48.156;11.530;2022-08-20T17:12:45;17.70;99.90
20558;DHT22;10437;48.156;11.530;2022-08-20T17:15:23;17.50;99.90
20558;DHT22;10437;48.156;11.530;2022-08-20T17:20:21;17.80;99.90
20558;DHT22;10437;48.156;11.530;2022-08-20T17:22:51;17.90;99.90
20558;DHT22;10437;48.156;11.530;2022-08-20T17:25:31;17.80;99.90
20558;DHT22;10437;48.156;11.530;2022-08-20T17:30:35;17.90;99.90
20558;DHT22;10437;48.156;11.530;2022-08-20T17:33:05;17.90;99.90
20558;DHT22;10437;48.156;11.530;2022-08-20T17:35:36;17.90;99.90
20558;DHT22;10437;48.156;11.530;2022-08-20T17:40:41;17.90;99.90
20558;DHT22;10437;48.156;11.530;2022-08-20T17:43:22;17.90;99.90
20558;DHT22;10437;48.156;11.530;2022-08-20T17:45:50;17.90;99.90
20558;DHT22;10437;48.156;11.530;2022-08-20T17:50:50;18.00;99.90
20558;DHT22;10437;48.156;11.530;2022-08-20T17:53:20;17.90;99.90
20558;DHT22;10437;48.156;11.530;2022-08-20T17:55:52;18.00;99.90
20558;DHT22;10437;48.156;11.530;2022-08-20T17:58:22;18.30;99.90
20558;DHT22;10437;48.156;11.530;2022-08-20T18:03:20;18.00;99.90
20558;DHT22;10437;48.156;11.530;2022-08-20T18:05:53;17.90;99.90
20558;DHT22;10437;48.156;11.530;2022-08-20T18:08:34;18.00;99.90
20558;DHT22;10437;48.156;11.530;2022-08-20T18:11:12;18.00;99.90
20558;DHT22;10437;48.156;11.530;2022-08-20T18:13:56;17.90;99.90
20558;DHT22;10437;48.156;11.530;2022-08-20T18:16:28;17.90;99.90
20558;DHT22;10437;48.156;11.530;2022-08-20T18:18:57;18.20;99.90
20558;DHT22;10437;48.156;11.530;2022-08-20T18:21:48;17.90;99.90
20558;DHT22;10437;48.156;11.530;2022-08-20T18:24:23;18.20;99.90
20558;DHT22;10437;48.156;11.530;2022-08-20T18:26:57;18.00;99.90
20558;DHT22;10437;48.156;11.530;2022-08-20T18:29:28;18.00;99.90
20558;DHT22;10437;48.156;11.530;2022-08-20T18:31:58;18.40;99.90
20558;DHT22;10437;48.156;11.530;2022-08-20T18:34:37;18.10;99.90
20558;DHT22;10437;48.156;11.530;2022-08-20T18:37:07;18.10;99.90
20558;DHT22;10437;48.156;11.530;2022-08-20T18:42:27;19.10;99.90
20558;DHT22;10437;48.156;11.530;2022-08-20T18:44:55;18.10;99.90
20558;DHT22;10437;48.156;11.530;2022-08-20T18:47:25;17.90;99.90
20558;DHT22;10437;48.156;11.530;2022-08-20T18:50:11;18.00;99.90
20558;DHT22;10437;48.156;11.530;2022-08-20T18:52:40;18.00;99.90
20558;DHT22;10437;48.156;11.530;2022-08-20T18:55:10;20.50;99.90
20558;DHT22;10437;48.156;11.530;2022-08-20T18:57:51;18.10;99.90
20558;DHT22;10437;48.156;11.530;2022-08-20T19:00:20;18.10;99.90
20558;DHT22;10437;48.156;11.530;2022-08-20T19:03:00;18.10;99.90
20558;DHT22;10437;48.156;11.530;2022-08-20T19:05:34;18.00;99.90
20558;DHT22;10437;48.156;11.530;2022-08-20T19:08:03;18.40;99.90
20558;DHT22;10437;48.156;11.530;2022-08-20T19:10:41;18.20;99.90
20558;DHT22;10437;48.156;11.530;2022-08-20T19:13:42;17.80;99.90
20558;DHT22;10437;48.156;11.530;2022-08-20T19:16:15;18.00;99.90
20558;DHT22;10437;48.156;11.530;2022-08-20T19:18:46;18.10;99.90
20558;DHT22;10437;48.156;11.530;2022-08-20T19:21:18;18.00;99.90
20558;DHT22;10437;48.156;11.530;2022-08-20T19:23:51;17.70;99.90
20558;DHT22;10437;48.156;11.530;2022-08-20T19:26:21;18.00;99.90
20558;DHT22;10437;48.156;11.530;2022-08-20T19:28:53;17.70;99.90
20558;DHT22;10437;48.156;11.530;2022-08-20T19:31:24;18.00;99.90
20558;DHT22;10437;48.156;11.530;2022-08-20T19:34:00;18.10;99.90
20558;DHT22;10437;48.156;11.530;2022-08-20T19:36:29;18.10;99.90
20558;DHT22;10437;48.156;11.530;2022-08-20T19:38:59;17.90;99.90
20558;DHT22;10437;48.156;11.530;2022-08-20T19:41:28;17.90;99.90
20558;DHT22;10437;48.156;11.530;2022-08-20T19:46:28;17.90;99.90
20558;DHT22;10437;48.156;11.530;2022-08-20T19:49:11;17.90;99.90
20558;DHT22;10437;48.156;11.530;2022-08-20T19:51:49;18.30;99.90
20558;DHT22;10437;48.156;11.530;2022-08-20T19:54:20;18.00;99.90
20558;DHT22;10437;48.156;11.530;2022-08-20T19:59:18;18.00;99.90
20558;DHT22;10437;48.156;11.530;2022-08-20T20:01:52;17.80;99.90
20558;DHT22;10437;48.156;11.530;2022-08-20T20:04:23;17.90;99.90
20558;DHT22;10437;48.156;11.530;2022-08-20T20:09:21;17.90;99.90
20558;DHT22;10437;48.156;11.530;2022-08-20T20:11:52;18.00;99.90
20558;DHT22;10437;48.156;11.530;2022-08-20T20:14:27;17.70;99.90
20558;DHT22;10437;48.156;11.530;2022-08-20T20:21:51;17.80;99.90
20558;DHT22;10437;48.156;11.530;2022-08-20T20:24:28;17.80;99.90
20558;DHT22;10437;48.156;11.530;2022-08-20T20:26:57;17.70;99.90
20558;DHT22;10437;48.156;11.530;2022-08-20T20:29:27;17.80;99.90
20558;DHT22;10437;48.156;11.530;2022-08-20T20:32:01;17.80;99.90
20558;DHT22;10437;48.156;11.530;2022-08-20T20:34:39;17.70;99.90
20558;DHT22;10437;48.156;11.530;2022-08-20T20:37:07;17.70;99.90
20558;DHT22;10437;48.156;11.530;2022-08-20T20:39:36;17.70;99.90
20558;DHT22;10437;48.156;11.530;2022-08-20T20:42:06;17.70;99.90
20558;DHT22;10437;48.156;11.530;2022-08-20T20:44:36;17.60;99.90
20558;DHT22;10437;48.156;11.530;2022-08-20T20:47:06;17.50;99.90
20558;DHT22;10437;48.156;11.530;2022-08-20T20:49:45;17.70;99.90
20558;DHT22;10437;48.156;11.530;2022-08-20T20:52:19;17.60;99.90
20558;DHT22;10437;48.156;11.530;2022-08-20T20:57:23;17.50;99.90
20558;DHT22;10437;48.156;11.530;2022-08-20T20:59:51;17.90;99.90
20558;DHT22;10437;48.156;11.530;2022-08-20T21:02:19;17.70;99.90
20558;DHT22;10437;48.156;11.530;2022-08-20T21:07:16;17.60;99.90
20558;DHT22;10437;48.156;11.530;2022-08-20T21:09:44;17.60;99.90
20558;DHT22;10437;48.156;11.530;2022-08-20T21:12:12;17.60;99.90
20558;DHT22;10437;48.156;11.530;2022-08-20T21:17:09;17.60;99.90
20558;DHT22;10437;48.156;11.530;2022-08-20T21:29:30;17.60;99.90
20558;DHT22;10437;48.156;11.530;2022-08-20T21:34:25;17.70;99.90
20558;DHT22;10437;48.156;11.530;2022-08-20T21:44:18;17.50;99.90
20558;DHT22;10437;48.156;11.530;2022-08-20T21:51:42;17.50;99.90
20558;DHT22;10437;48.156;11.530;2022-08-20T21:56:36;17.50;99.90
20558;DHT22;10437;48.156;11.530;2022-08-20T22:08:56;17.50;99.90
20558;DHT22;10437;48.156;11.530;2022-08-20T22:13:50;17.50;99.90
20558;DHT22;10437;48.156;11.530;2022-08-20T22:16:18;17.50;99.90
20558;DHT22;10437;48.156;11.530;2022-08-20T22:18:46;17.30;99.90
20558;DHT22;10437;48.156;11.530;2022-08-20T22:21:17;17.40;99.90
20558;DHT22;10437;48.156;11.530;2022-08-20T22:23:45;17.50;99.90
20558;DHT22;10437;48.156;11.530;2022-08-20T22:26:14;17.50;99.90
20558;DHT22;10437;48.156;11.530;2022-08-20T22:28:42;17.50;99.90
20558;DHT22;10437;48.156;11.530;2022-08-20T22:36:05;17.40;99.90
20558;DHT22;10437;48.156;11.530;2022-08-20T22:43:28;17.40;99.90
20558;DHT22;10437;48.156;11.530;2022-08-20T22:45:57;17.50;99.90
20558;DHT22;10437;48.156;11.530;2022-08-20T22:48:25;17.50;99.90
20558;DHT22;10437;48.156;11.530;2022-08-20T22:53:21;17.40;99.90
20558;DHT22;10437;48.156;11.530;2022-08-20T23:00:46;17.40;99.90
20558;DHT22;10437;48.156;11.530;2022-08-20T23:03:14;17.40;99.90
20558;DHT22;10437;48.156;11.530;2022-08-20T23:05:42;17.40;99.90
20558;DHT22;10437;48.156;11.530;2022-08-20T23:13:05;17.40;99.90
20558;DHT22;10437;48.156;11.530;2022-08-20T23:15:35;17.40;99.90
20558;DHT22;10437;48.156;11.530;2022-08-20T23:18:07;17.40;99.90
20558;DHT22;10437;48.156;11.530;2022-08-20T23:23:02;17.40;99.90
20558;DHT22;10437;48.156;11.530;2022-08-20T23:32:51;17.30;99.90
20558;DHT22;10437;48.156;11.530;2022-08-20T23:35:21;17.30;99.90
20558;DHT22;10437;48.156;11.530;2022-08-20T23:37:49;17.40;99.90
20558;DHT22;10437;48.156;11.530;2022-08-20T23:40:19;17.30;99.90
20558;DHT22;10437;48.156;11.530;2022-08-20T23:45:15;17.30;99.90
20558;DHT22;10437;48.156;11.530;2022-08-20T23:47:42;17.30;99.90
20558;DHT22;10437;48.156;11.530;2022-08-20T23:50:13;17.20;99.90
20558;DHT22;10437;48.156;11.530;2022-08-20T23:52:41;17.20;99.90
20558;DHT22;10437;48.156;11.530;2022-08-20T23:55:09;17.20;99.90
